createdAt,value
2022-09-24T00:01:51.681Z,11.06
2022-09-24T00:04:20.168Z,11.07
2022-09-24T00:06:49.461Z,11.06
2022-09-24T00:09:22.010Z,11.07
2022-09-24T00:11:50.482Z,11.07
2022-09-24T00:14:19.712Z,11.05
2022-09-24T00:16:47.659Z,11.04
2022-09-24T00:19:15.861Z,11.02
2022-09-24T00:21:43.777Z,11.00
2022-09-24T00:24:36.763Z,10.99
2022-09-24T00:27:05.757Z,10.98
2022-09-24T00:29:36.221Z,10.96
2022-09-24T00:32:05.011Z,10.94
2022-09-24T00:34:32.773Z,10.92
2022-09-24T00:37:00.704Z,10.88
2022-09-24T00:39:28.703Z,10.89
2022-09-24T00:41:56.509Z,10.89
2022-09-24T00:44:54.223Z,10.88
2022-09-24T00:47:29.800Z,10.89
2022-09-24T00:50:08.056Z,10.89
2022-09-24T00:52:39.385Z,10.89
2022-09-24T00:55:08.338Z,10.86
2022-09-24T00:57:36.177Z,10.81
2022-09-24T01:00:07.035Z,10.78
2022-09-24T01:02:37.397Z,10.68
2022-09-24T01:05:06.018Z,10.64
2022-09-24T01:07:35.274Z,10.62
2022-09-24T01:10:03.255Z,10.59
2022-09-24T01:12:41.460Z,10.58
2022-09-24T01:15:21.296Z,10.54
2022-09-24T01:17:56.761Z,10.55
2022-09-24T01:20:39.749Z,10.57
2022-09-24T01:23:22.489Z,10.60
2022-09-24T01:26:07.867Z,10.60
2022-09-24T01:28:52.322Z,10.58
2022-09-24T01:31:26.629Z,10.57
2022-09-24T01:33:57.012Z,10.56
2022-09-24T01:36:27.434Z,10.55
2022-09-24T01:38:58.520Z,10.52
2022-09-24T01:41:26.343Z,10.52
2022-09-24T01:43:54.860Z,10.51
2022-09-24T01:46:25.081Z,10.50
2022-09-24T01:48:53.366Z,10.52
2022-09-24T01:51:26.055Z,10.53
2022-09-24T01:53:58.625Z,10.55
2022-09-24T01:56:29.445Z,10.57
2022-09-24T01:59:02.739Z,10.56
2022-09-24T02:01:36.216Z,10.54
2022-09-24T02:04:09.266Z,10.52
2022-09-24T02:06:41.346Z,10.50
2022-09-24T02:09:30.443Z,10.48
2022-09-24T02:12:01.408Z,10.43
2022-09-24T02:14:33.535Z,10.40
2022-09-24T02:17:05.084Z,10.36
2022-09-24T02:19:37.374Z,10.34
2022-09-24T02:22:08.012Z,10.33
2022-09-24T02:24:44.769Z,10.34
2022-09-24T02:27:12.697Z,10.33
2022-09-24T02:29:40.854Z,10.32
2022-09-24T02:32:14.359Z,10.33
2022-09-24T02:34:47.130Z,10.34
2022-09-24T02:37:16.829Z,10.34
2022-09-24T02:39:45.235Z,10.34
2022-09-24T02:42:15.595Z,10.27
2022-09-24T02:44:43.344Z,10.27
2022-09-24T02:47:12.438Z,10.27
2022-09-24T02:49:40.236Z,10.27
2022-09-24T02:52:07.978Z,10.26
2022-09-24T02:54:35.732Z,10.25
2022-09-24T02:57:03.464Z,10.26
2022-09-24T02:59:31.197Z,10.22
2022-09-24T03:01:59.043Z,10.27
2022-09-24T03:04:29.381Z,10.23
2022-09-24T03:06:57.229Z,10.20
2022-09-24T03:09:24.976Z,10.15
2022-09-24T03:11:52.653Z,10.14
2022-09-24T03:14:20.378Z,10.16
2022-09-24T03:16:51.962Z,10.20
2022-09-24T03:19:19.718Z,10.22
2022-09-24T03:21:48.756Z,10.26
2022-09-24T03:24:16.446Z,10.24
2022-09-24T03:26:44.180Z,10.23
2022-09-24T03:29:11.986Z,10.27
2022-09-24T03:31:38.817Z,10.26
2022-09-24T03:34:06.553Z,10.23
2022-09-24T03:36:34.358Z,10.18
2022-09-24T03:39:03.868Z,10.22
2022-09-24T03:41:31.599Z,10.22
2022-09-24T03:43:59.421Z,10.25
2022-09-24T03:46:28.399Z,10.25
2022-09-24T03:48:56.693Z,10.25
2022-09-24T03:51:24.479Z,10.22
2022-09-24T03:53:52.389Z,10.26
2022-09-24T03:56:21.769Z,10.29
2022-09-24T03:58:49.497Z,10.29
2022-09-24T04:01:21.241Z,10.31
2022-09-24T04:03:49.729Z,10.31
2022-09-24T04:06:20.910Z,10.33
2022-09-24T04:08:52.691Z,10.34
2022-09-24T04:11:21.838Z,10.33
2022-09-24T04:13:49.543Z,10.34
2022-09-24T04:16:17.576Z,10.36
2022-09-24T04:18:47.935Z,10.36
2022-09-24T04:21:15.894Z,10.36
2022-09-24T04:23:43.626Z,10.37
2022-09-24T04:26:12.409Z,10.40
2022-09-24T04:28:41.475Z,10.42
2022-09-24T04:31:09.382Z,10.42
2022-09-24T04:33:37.187Z,10.43
2022-09-24T04:36:05.135Z,10.43
2022-09-24T04:38:33.057Z,10.43
2022-09-24T04:41:06.260Z,10.43
2022-09-24T04:43:34.194Z,10.44
2022-09-24T04:46:03.814Z,10.44
2022-09-24T04:48:32.248Z,10.46
2022-09-24T04:50:59.927Z,10.46
2022-09-24T04:53:27.651Z,10.47
2022-09-24T04:55:55.361Z,10.47
2022-09-24T04:58:23.120Z,10.48
2022-09-24T05:00:51.182Z,10.47
2022-09-24T05:03:21.189Z,10.48
2022-09-24T05:05:50.028Z,10.50
2022-09-24T05:08:17.859Z,10.51
2022-09-24T05:10:45.637Z,10.50
2022-09-24T05:13:13.377Z,10.51
2022-09-24T05:15:43.360Z,10.52
2022-09-24T05:18:16.258Z,10.54
2022-09-24T05:20:45.341Z,10.55
2022-09-24T05:23:13.077Z,10.53
2022-09-24T05:25:54.700Z,10.54
2022-09-24T05:28:22.481Z,10.55
2022-09-24T05:30:51.365Z,10.60
2022-09-24T05:33:19.050Z,10.62
2022-09-24T05:35:54.505Z,10.64
2022-09-24T05:38:22.857Z,10.67
2022-09-24T05:40:50.739Z,10.71
2022-09-24T05:43:20.247Z,10.76
2022-09-24T05:45:48.993Z,10.79
2022-09-24T05:48:17.649Z,10.81
2022-09-24T05:50:45.369Z,10.83
2022-09-24T05:53:14.456Z,10.86
2022-09-24T05:55:44.331Z,10.90
2022-09-24T05:58:13.267Z,10.91
2022-09-24T06:00:41.273Z,10.94
2022-09-24T06:03:13.609Z,10.94
2022-09-24T06:05:46.281Z,10.97
2022-09-24T06:08:16.440Z,10.99
2022-09-24T06:10:45.436Z,10.99
2022-09-24T06:13:14.175Z,11.00
2022-09-24T06:15:42.380Z,11.02
2022-09-24T06:18:12.152Z,11.05
2022-09-24T06:20:40.124Z,11.08
2022-09-24T06:23:08.184Z,11.11
2022-09-24T06:25:37.414Z,11.13
2022-09-24T06:28:05.869Z,11.15
2022-09-24T06:30:38.281Z,11.19
2022-09-24T06:33:08.457Z,11.21
2022-09-24T06:35:36.940Z,11.22
2022-09-24T06:38:05.510Z,11.28
2022-09-24T06:40:37.156Z,11.29
2022-09-24T06:43:07.517Z,11.34
2022-09-24T06:45:36.142Z,11.35
2022-09-24T06:48:06.677Z,11.42
2022-09-24T06:50:35.907Z,11.45
2022-09-24T06:53:06.658Z,11.55
2022-09-24T06:55:35.081Z,11.62
2022-09-24T06:58:04.378Z,11.61
2022-09-24T07:00:34.067Z,11.65
2022-09-24T07:03:01.935Z,11.71
2022-09-24T07:05:29.830Z,11.79
2022-09-24T07:07:57.641Z,11.86
2022-09-24T07:10:26.515Z,11.86
2022-09-24T07:12:54.491Z,11.88
2022-09-24T07:15:22.346Z,11.91
2022-09-24T07:17:56.125Z,11.94
2022-09-24T07:20:24.341Z,11.99
2022-09-24T07:22:52.742Z,12.02
2022-09-24T07:25:23.621Z,12.05
2022-09-24T07:27:51.639Z,12.10
2022-09-24T07:30:19.601Z,12.16
2022-09-24T07:32:48.307Z,12.22
2022-09-24T07:35:18.978Z,12.32
2022-09-24T07:37:46.977Z,12.42
2022-09-24T07:40:14.956Z,12.56
2022-09-24T07:42:48.421Z,12.72
2022-09-24T07:45:17.230Z,12.88
2022-09-24T07:47:45.184Z,12.99
2022-09-24T07:50:13.744Z,13.09
2022-09-24T07:52:43.088Z,13.22
2022-09-24T07:55:10.962Z,13.43
2022-09-24T07:57:39.371Z,13.50
2022-09-24T08:00:08.269Z,13.61
2022-09-24T08:02:39.385Z,13.70
2022-09-24T08:05:08.135Z,13.79
2022-09-24T08:07:35.895Z,13.90
2022-09-24T08:10:05.696Z,14.06
2022-09-24T08:12:33.445Z,14.25
2022-09-24T08:15:01.219Z,14.31
2022-09-24T08:17:29.037Z,14.44
2022-09-24T08:19:57.044Z,14.62
2022-09-24T08:22:25.057Z,14.71
2022-09-24T08:24:53.335Z,14.75
2022-09-24T08:27:23.794Z,14.85
2022-09-24T08:29:51.902Z,14.91
2022-09-24T08:32:19.756Z,14.90
2022-09-24T08:34:47.645Z,14.93
2022-09-24T08:37:15.463Z,14.91
2022-09-24T08:39:43.405Z,14.85
2022-09-24T08:42:16.685Z,14.75
2022-09-24T08:45:04.798Z,14.66
2022-09-24T08:47:39.390Z,14.61
2022-09-24T08:50:13.505Z,14.56
2022-09-24T08:52:51.813Z,14.48
2022-09-24T08:55:23.541Z,14.42
2022-09-24T08:57:58.756Z,14.29
2022-09-24T09:00:29.620Z,14.19
2022-09-24T09:03:05.244Z,14.21
2022-09-24T09:05:49.969Z,14.18
2022-09-24T09:08:50.089Z,14.13
2022-09-24T09:11:16.341Z,14.12
2022-09-24T09:13:49.707Z,14.13
2022-09-24T09:16:25.975Z,14.13
2022-09-24T09:18:59.520Z,14.11
2022-09-24T09:21:30.636Z,14.15
2022-09-24T09:24:00.861Z,14.21
2022-09-24T09:26:28.594Z,14.16
2022-09-24T09:29:00.999Z,14.18
2022-09-24T09:31:40.634Z,14.19
2022-09-24T09:34:31.195Z,14.15
2022-09-24T09:37:14.020Z,14.24
2022-09-24T09:39:50.799Z,14.28
2022-09-24T09:42:29.654Z,14.30
2022-09-24T09:44:58.095Z,14.35
2022-09-24T09:47:40.146Z,14.44
2022-09-24T09:50:16.449Z,14.46
2022-09-24T09:52:44.441Z,14.47
2022-09-24T09:55:22.950Z,14.51
2022-09-24T09:57:52.327Z,14.52
2022-09-24T10:00:33.935Z,14.57
2022-09-24T10:03:04.173Z,14.66
2022-09-24T10:05:32.472Z,14.56
2022-09-24T10:08:00.255Z,14.57
2022-09-24T10:10:29.357Z,14.58
2022-09-24T10:13:09.118Z,14.63
2022-09-24T10:15:49.336Z,14.63
2022-09-24T10:18:26.808Z,14.67
2022-09-24T10:20:54.571Z,14.72
2022-09-24T10:23:26.556Z,14.82
2022-09-24T10:26:00.441Z,14.91
2022-09-24T10:28:47.116Z,14.98
2022-09-24T10:31:19.074Z,14.97
2022-09-24T10:33:51.229Z,14.97
2022-09-24T10:36:22.117Z,14.94
2022-09-24T10:38:50.161Z,14.95
2022-09-24T10:41:27.110Z,14.97
2022-09-24T10:43:56.462Z,15.01
2022-09-24T10:47:01.778Z,15.07
2022-09-24T10:49:45.132Z,15.04
2022-09-24T10:52:26.421Z,15.04
2022-09-24T10:55:07.105Z,15.03
2022-09-24T10:57:43.421Z,15.09
2022-09-24T11:00:17.152Z,15.15
2022-09-24T11:03:12.845Z,15.24
2022-09-24T11:05:46.449Z,15.31
2022-09-24T11:08:26.207Z,15.36
2022-09-24T11:11:16.835Z,15.39
2022-09-24T11:13:56.030Z,15.42
2022-09-24T11:16:41.280Z,15.39
2022-09-24T11:19:21.288Z,15.41
2022-09-24T11:22:10.947Z,15.40
2022-09-24T11:24:52.253Z,15.46
2022-09-24T11:27:46.338Z,15.54
2022-09-24T11:30:17.203Z,15.56
2022-09-24T11:32:59.231Z,15.58
2022-09-24T11:35:53.972Z,15.65
2022-09-24T11:38:34.273Z,15.57
2022-09-24T11:41:17.359Z,15.65
2022-09-24T11:44:13.511Z,15.58
2022-09-24T11:46:53.395Z,15.49
2022-09-24T11:49:37.351Z,15.50
2022-09-24T11:52:11.305Z,15.40
2022-09-24T11:54:47.721Z,15.35
2022-09-24T11:57:21.656Z,15.28
2022-09-24T11:59:57.284Z,15.31
2022-09-24T12:02:30.254Z,15.38
2022-09-24T12:05:04.074Z,15.42
2022-09-24T12:07:37.816Z,15.50
2022-09-24T12:10:24.915Z,15.60
2022-09-24T12:12:55.176Z,15.66
2022-09-24T12:15:25.289Z,15.65
2022-09-24T12:17:57.990Z,15.81
2022-09-24T12:20:28.641Z,15.94
2022-09-24T12:23:00.941Z,15.98
2022-09-24T12:25:33.670Z,15.99
2022-09-24T12:28:02.624Z,15.97
2022-09-24T12:30:56.390Z,15.91
2022-09-24T12:33:31.333Z,15.91
2022-09-24T12:36:06.917Z,15.94
2022-09-24T12:38:39.389Z,15.96
2022-09-24T12:41:27.686Z,16.03
2022-09-24T12:44:00.955Z,15.98
2022-09-24T12:46:32.450Z,15.96
2022-09-24T12:49:00.750Z,15.91
2022-09-24T12:51:36.677Z,15.84
2022-09-24T12:54:10.244Z,15.81
2022-09-24T12:56:40.991Z,15.78
2022-09-24T12:59:25.366Z,15.79
2022-09-24T13:01:53.159Z,15.71
2022-09-24T13:04:28.682Z,15.57
2022-09-24T13:06:56.621Z,15.56
2022-09-24T13:09:34.233Z,15.65
2022-09-24T13:12:07.023Z,15.78
2022-09-24T13:14:35.783Z,15.89
2022-09-24T13:17:07.605Z,15.94
2022-09-24T13:19:40.773Z,16.08
2022-09-24T13:22:21.820Z,16.24
2022-09-24T13:24:52.607Z,16.48
2022-09-24T13:27:37.699Z,16.66
2022-09-24T13:30:16.122Z,16.70
2022-09-24T13:32:50.189Z,16.80
2022-09-24T13:35:23.644Z,16.83
2022-09-24T13:37:57.305Z,16.84
2022-09-24T13:40:29.229Z,16.65
2022-09-24T13:43:05.328Z,16.55
2022-09-24T13:45:34.984Z,16.67
2022-09-24T13:48:51.546Z,16.74
2022-09-24T13:51:28.887Z,16.56
2022-09-24T15:04:40.061Z,15.63
2022-09-24T15:07:17.693Z,15.66
2022-09-24T15:09:50.357Z,15.68
2022-09-24T15:12:21.554Z,15.67
2022-09-24T15:14:57.601Z,15.69
2022-09-24T15:17:30.359Z,15.71
2022-09-24T15:19:58.067Z,15.72
2022-09-24T15:22:28.074Z,15.71
2022-09-24T15:25:01.156Z,15.72
2022-09-24T15:27:31.490Z,15.73
2022-09-24T15:30:01.196Z,15.73
2022-09-24T15:32:30.880Z,15.68
2022-09-24T15:34:59.278Z,15.64
2022-09-24T15:37:30.633Z,15.60
2022-09-24T15:40:01.272Z,15.55
2022-09-24T15:42:29.201Z,15.53
2022-09-24T15:45:01.630Z,15.52
2022-09-24T15:47:29.683Z,15.48
2022-09-24T15:49:57.458Z,15.43
2022-09-24T15:52:29.599Z,15.39
2022-09-24T15:54:59.828Z,15.34
2022-09-24T15:57:28.202Z,15.29
2022-09-24T15:59:56.298Z,15.24
2022-09-24T16:02:27.950Z,15.20
2022-09-24T16:05:00.127Z,15.14
2022-09-24T16:07:32.034Z,15.10
2022-09-24T16:09:59.849Z,15.04
2022-09-24T16:12:28.193Z,15.00
2022-09-24T16:14:59.141Z,14.97
2022-09-24T16:17:27.070Z,14.93
2022-09-24T16:19:55.242Z,14.88
2022-09-24T16:22:23.360Z,14.84
2022-09-24T16:24:54.078Z,14.79
2022-09-24T16:27:22.322Z,14.74
2022-09-24T16:29:50.247Z,14.71
2022-09-24T16:32:18.062Z,14.67
2022-09-24T16:34:46.465Z,14.63
2022-09-24T16:37:16.601Z,14.59
2022-09-24T16:39:44.468Z,14.55
2022-09-24T16:42:13.582Z,14.52
2022-09-24T16:44:41.506Z,14.49
2022-09-24T16:47:09.626Z,14.47
2022-09-24T16:49:37.424Z,14.46
2022-09-24T16:52:06.180Z,14.45
2022-09-24T16:54:34.485Z,14.42
2022-09-24T16:57:03.413Z,14.40
2022-09-24T16:59:32.999Z,14.39
2022-09-24T17:02:00.931Z,14.37
2022-09-24T17:04:29.818Z,14.36
2022-09-24T17:06:58.314Z,14.35
2022-09-24T17:09:43.524Z,14.33
2022-09-24T17:12:11.614Z,14.30
2022-09-24T17:14:40.713Z,14.28
2022-09-24T17:17:08.530Z,14.32
2022-09-24T17:19:36.273Z,14.24
2022-09-24T17:22:03.982Z,14.19
2022-09-24T17:24:32.489Z,14.17
2022-09-24T17:27:00.740Z,14.13
2022-09-24T17:29:31.631Z,14.12
2022-09-24T17:32:01.197Z,14.11
2022-09-24T17:34:29.070Z,14.12
2022-09-24T17:36:57.406Z,14.06
2022-09-24T17:39:25.273Z,14.11
2022-09-24T17:41:53.020Z,14.13
2022-09-24T17:44:20.753Z,14.10
2022-09-24T17:46:48.576Z,14.05
2022-09-24T17:49:17.758Z,13.99
2022-09-24T17:51:49.272Z,13.99
2022-09-24T17:54:19.036Z,13.97
2022-09-24T17:56:46.853Z,13.97
2022-09-24T17:59:16.166Z,13.97
2022-09-24T18:01:45.465Z,13.95
2022-09-24T18:04:15.099Z,13.92
2022-09-24T18:06:46.059Z,13.91
2022-09-24T18:09:15.684Z,13.89
2022-09-24T18:11:45.241Z,13.85
2022-09-24T18:14:16.748Z,13.81
2022-09-24T18:16:45.318Z,13.76
2022-09-24T18:19:15.646Z,13.74
2022-09-24T18:21:45.249Z,13.70
2022-09-24T18:24:13.013Z,13.67
2022-09-24T18:26:41.452Z,13.66
2022-09-24T18:29:13.749Z,13.64
2022-09-24T18:31:42.150Z,13.63
2022-09-24T18:34:13.084Z,13.62
2022-09-24T18:36:42.233Z,13.60
2022-09-24T18:39:13.599Z,13.57
2022-09-24T18:41:43.328Z,13.56
2022-09-24T18:44:11.845Z,13.55
2022-09-24T18:46:40.090Z,13.52
2022-09-24T18:49:08.043Z,13.48
2022-09-24T18:51:37.719Z,13.44
2022-09-24T18:54:07.502Z,13.45
2022-09-24T18:56:37.292Z,13.45
2022-09-24T18:59:09.714Z,13.43
2022-09-24T19:01:38.010Z,13.39
2022-09-24T19:04:07.044Z,13.37
2022-09-24T19:06:36.072Z,13.34
2022-09-24T19:09:05.707Z,13.33
2022-09-24T19:11:34.415Z,13.32
2022-09-24T19:14:06.396Z,13.35
2022-09-24T19:16:34.995Z,13.33
2022-09-24T19:19:03.107Z,13.34
2022-09-24T19:21:31.502Z,13.31
2022-09-24T19:24:00.602Z,13.26
2022-09-24T19:26:29.913Z,13.25
2022-09-24T19:28:58.882Z,13.24
2022-09-24T19:31:30.649Z,13.22
2022-09-24T19:34:00.070Z,13.22
2022-09-24T19:36:27.791Z,13.25
2022-09-24T19:38:56.082Z,13.24
2022-09-24T19:41:26.215Z,13.20
2022-09-24T19:43:55.068Z,13.14
2022-09-24T19:46:24.297Z,13.10
2022-09-24T19:48:54.884Z,13.06
2022-09-24T19:51:24.672Z,13.02
2022-09-24T19:53:54.267Z,13.00
2022-09-24T19:56:25.302Z,12.97
2022-09-24T19:58:54.091Z,12.93
2022-09-24T20:01:22.926Z,12.91
2022-09-24T20:03:51.748Z,12.87
2022-09-24T20:06:23.591Z,12.84
2022-09-24T20:08:51.320Z,12.81
2022-09-24T20:11:21.169Z,12.75
2022-09-24T20:13:49.300Z,12.73
2022-09-24T20:16:19.991Z,12.71
2022-09-24T20:18:48.414Z,12.68
2022-09-24T20:21:17.142Z,12.66
2022-09-24T20:23:47.155Z,12.62
2022-09-24T20:26:33.385Z,12.58
2022-09-24T20:29:01.935Z,12.50
2022-09-24T20:31:30.454Z,12.47
2022-09-24T20:33:58.457Z,12.45
2022-09-24T20:36:26.205Z,12.38
2022-09-24T20:38:55.556Z,12.36
2022-09-24T20:41:25.254Z,12.35
2022-09-24T20:43:55.418Z,12.35
2022-09-24T20:46:24.713Z,12.37
2022-09-24T20:48:52.814Z,12.37
2022-09-24T20:51:22.216Z,12.36
2022-09-24T20:53:50.444Z,12.29
2022-09-24T20:56:19.596Z,12.34
2022-09-24T20:58:50.061Z,12.34
2022-09-24T21:01:25.199Z,12.33
2022-09-24T21:03:53.162Z,12.31
2022-09-24T21:06:22.900Z,12.26
2022-09-24T21:08:51.961Z,12.16
2022-09-24T21:11:22.961Z,12.14
2022-09-24T21:13:53.005Z,12.10
2022-09-24T21:16:23.337Z,12.09
2022-09-24T21:18:54.420Z,12.05
2022-09-24T21:21:24.025Z,12.01
2022-09-24T21:23:53.297Z,12.04
2022-09-24T21:26:23.782Z,12.02
2022-09-24T21:28:53.651Z,11.92
2022-09-24T21:31:24.138Z,11.90
2022-09-24T21:33:53.556Z,11.82
2022-09-24T21:36:24.171Z,11.79
2022-09-24T21:38:55.297Z,11.74
2022-09-24T21:41:26.006Z,11.71
2022-09-24T21:43:55.448Z,11.71
2022-09-24T21:46:23.866Z,11.70
2022-09-24T21:48:52.219Z,11.69
2022-09-24T21:51:21.714Z,11.67
2022-09-24T21:53:49.941Z,11.66
2022-09-24T21:56:18.686Z,11.67
2022-09-24T21:58:47.839Z,11.66
2022-09-24T22:01:17.994Z,11.67
2022-09-24T22:03:46.626Z,11.63
2022-09-24T22:06:15.146Z,11.62
2022-09-24T22:08:45.388Z,11.60
2022-09-24T22:11:13.716Z,11.61
2022-09-24T22:13:41.980Z,11.61
2022-09-24T22:16:12.061Z,11.60
2022-09-24T22:18:40.642Z,11.61
2022-09-24T22:21:10.448Z,11.59
2022-09-24T22:23:38.795Z,11.57
2022-09-24T22:26:07.957Z,11.54
2022-09-24T22:28:37.775Z,11.50
2022-09-24T22:31:07.596Z,11.46
2022-09-24T22:33:51.042Z,11.46
2022-09-24T22:36:19.305Z,11.44
2022-09-24T22:38:48.162Z,11.42
2022-09-24T22:41:16.271Z,11.35
2022-09-24T22:43:44.013Z,11.28
2022-09-24T22:46:14.188Z,11.18
2022-09-24T22:48:43.829Z,11.14
2022-09-24T22:51:11.588Z,11.13
2022-09-24T22:53:40.776Z,11.12
2022-09-24T22:56:11.286Z,11.10
2022-09-24T22:58:41.181Z,11.04
2022-09-24T23:01:10.158Z,11.04
2022-09-24T23:03:38.699Z,11.02
2022-09-24T23:06:09.335Z,10.96
2022-09-24T23:08:40.723Z,10.96
2022-09-24T23:11:10.197Z,10.91
2022-09-24T23:13:38.825Z,10.89
2022-09-24T23:16:12.161Z,10.90
2022-09-24T23:18:40.638Z,10.86
2022-09-24T23:21:12.326Z,10.87
2022-09-24T23:23:40.471Z,10.85
2022-09-24T23:26:16.228Z,10.89
2022-09-24T23:28:45.494Z,10.88
2022-09-24T23:31:14.798Z,10.83
2022-09-24T23:33:43.456Z,10.81
2022-09-24T23:36:14.950Z,10.83
2022-09-24T23:38:43.613Z,10.84
2022-09-24T23:41:13.108Z,10.80
2022-09-24T23:43:42.247Z,10.79
2022-09-24T23:46:11.354Z,10.81
2022-09-24T23:48:39.309Z,10.79
2022-09-24T23:51:07.933Z,10.80
2022-09-24T23:53:37.726Z,10.72
2022-09-24T23:56:07.298Z,10.70
2022-09-24T23:58:35.518Z,10.66
